Time,TemperatureF,DewpointF,PressureIn,WindDirection,WindDirectionDegrees,WindSpeedMPH,WindSpeedGustMPH,Humidity,HourlyPrecipIn,Conditions,Clouds,dailyrainin,SoftwareType,DateUTC
2014-02-09 00:01:00,33.8,31.7,29.64,ESE,113,0.0,0.0,92,0.00,,,0.00,WUHU216HW,2014-02-09 08:01:00,
2014-02-09 00:06:00,33.8,31.7,29.64,ESE,113,0.0,0.0,92,0.00,,,0.00,WUHU216HW,2014-02-09 08:06:00,
2014-02-09 00:11:00,33.8,31.7,29.64,ESE,113,0.0,0.0,92,0.00,,,0.00,WUHU216HW,2014-02-09 08:11:00,
2014-02-09 00:16:00,33.8,31.7,29.64,ESE,113,0.0,0.0,92,0.00,,,0.00,WUHU216HW,2014-02-09 08:16:00,
2014-02-09 00:21:00,33.8,31.7,29.65,ESE,113,0.0,0.0,92,0.00,,,0.00,WUHU216HW,2014-02-09 08:21:00,
2014-02-09 00:26:00,33.8,31.7,29.65,ESE,113,0.0,0.0,92,0.00,,,0.00,WUHU216HW,2014-02-09 08:26:00,
2014-02-09 00:31:00,33.8,31.7,29.65,ESE,113,0.0,0.0,92,0.00,,,0.00,WUHU216HW,2014-02-09 08:31:00,
2014-02-09 00:36:00,33.8,31.7,29.66,ESE,113,0.0,0.0,92,0.00,,,0.00,WUHU216HW,2014-02-09 08:36:00,
2014-02-09 00:41:00,33.8,31.7,29.66,ESE,113,0.0,0.0,92,0.00,,,0.00,WUHU216HW,2014-02-09 08:41:00,
2014-02-09 00:46:00,33.8,31.7,29.66,ESE,113,0.0,0.0,92,0.00,,,0.00,WUHU216HW,2014-02-09 08:46:00,
2014-02-09 00:51:00,33.8,31.7,29.66,ESE,113,0.0,0.0,92,0.00,,,0.00,WUHU216HW,2014-02-09 08:51:00,
2014-02-09 00:56:00,33.8,31.7,29.67,ESE,113,0.0,0.0,92,0.00,,,0.00,WUHU216HW,2014-02-09 08:56:00,
2014-02-09 01:01:00,33.8,31.7,29.67,ESE,113,0.0,0.0,92,0.00,,,0.00,WUHU216HW,2014-02-09 09:01:00,
2014-02-09 01:06:00,33.8,31.7,29.67,ESE,113,0.0,0.0,92,0.00,,,0.00,WUHU216HW,2014-02-09 09:06:00,
2014-02-09 01:11:00,33.8,31.7,29.67,ESE,113,0.0,0.0,92,0.00,,,0.00,WUHU216HW,2014-02-09 09:11:00,
2014-02-09 01:16:00,33.8,31.7,29.67,ESE,113,0.0,0.0,92,0.00,,,0.00,WUHU216HW,2014-02-09 09:16:00,
2014-02-09 01:21:00,33.8,31.7,29.68,ESE,113,0.0,0.0,92,0.00,,,0.00,WUHU216HW,2014-02-09 09:21:00,
2014-02-09 01:26:00,33.8,31.7,29.68,ESE,113,0.0,0.0,92,0.00,,,0.00,WUHU216HW,2014-02-09 09:26:00,
2014-02-09 01:31:00,33.8,31.7,29.68,ESE,113,0.0,0.0,92,0.00,,,0.00,WUHU216HW,2014-02-09 09:31:00,
2014-02-09 01:36:00,33.8,31.7,29.68,ESE,113,0.0,0.0,92,0.00,,,0.00,WUHU216HW,2014-02-09 09:36:00,
2014-02-09 01:41:00,34.0,31.9,29.68,ESE,113,0.0,0.0,92,0.00,,,0.00,WUHU216HW,2014-02-09 09:41:00,
2014-02-09 01:46:00,34.0,31.9,29.68,ESE,113,0.0,0.0,92,0.00,,,0.00,WUHU216HW,2014-02-09 09:46:00,
2014-02-09 01:51:00,33.8,31.7,29.69,ESE,113,0.0,0.0,92,0.00,,,0.00,WUHU216HW,2014-02-09 09:51:00,
2014-02-09 01:56:00,33.8,31.7,29.69,ESE,113,0.0,0.0,92,0.00,,,0.00,WUHU216HW,2014-02-09 09:56:00,
2014-02-09 02:01:00,33.8,31.7,29.70,ESE,113,0.0,0.0,92,0.00,,,0.00,WUHU216HW,2014-02-09 10:01:00,
2014-02-09 02:06:00,33.8,32.0,29.70,ESE,113,0.0,0.0,93,0.00,,,0.00,WUHU216HW,2014-02-09 10:06:00,
2014-02-09 02:11:00,34.0,32.1,29.70,ESE,113,0.0,0.0,93,0.00,,,0.00,WUHU216HW,2014-02-09 10:11:00,
2014-02-09 02:16:00,34.0,32.1,29.70,ESE,113,0.0,0.0,93,0.00,,,0.00,WUHU216HW,2014-02-09 10:16:00,
2014-02-09 02:21:00,33.8,32.0,29.70,ESE,113,0.0,0.0,93,0.00,,,0.00,WUHU216HW,2014-02-09 10:21:00,
2014-02-09 02:26:00,34.0,32.1,29.69,ESE,113,0.0,0.0,93,0.00,,,0.00,WUHU216HW,2014-02-09 10:26:00,
2014-02-09 02:31:00,34.0,32.1,29.70,ESE,113,0.0,0.0,93,0.00,,,0.00,WUHU216HW,2014-02-09 10:31:00,
2014-02-09 02:36:00,34.0,32.1,29.70,ESE,113,0.0,0.0,93,0.00,,,0.00,WUHU216HW,2014-02-09 10:36:00,
2014-02-09 02:41:00,34.0,32.1,29.70,ESE,113,0.0,0.0,93,0.00,,,0.00,WUHU216HW,2014-02-09 10:41:00,
2014-02-09 02:46:00,34.2,32.3,29.70,ESE,113,0.0,0.0,93,0.00,,,0.00,WUHU216HW,2014-02-09 10:46:00,
2014-02-09 02:51:00,34.2,32.3,29.70,ESE,113,0.0,0.0,93,0.00,,,0.00,WUHU216HW,2014-02-09 10:51:00,
2014-02-09 02:56:00,34.2,32.3,29.70,ESE,113,0.0,0.0,93,0.00,,,0.00,WUHU216HW,2014-02-09 10:56:00,
2014-02-09 03:01:00,34.2,32.3,29.70,ESE,113,0.0,0.0,93,0.00,,,0.00,WUHU216HW,2014-02-09 11:01:00,
2014-02-09 03:06:00,34.2,32.3,29.70,ESE,113,0.0,0.0,93,0.00,,,0.00,WUHU216HW,2014-02-09 11:06:00,
2014-02-09 03:11:00,34.2,32.3,29.70,ESE,113,0.0,0.0,93,0.00,,,0.00,WUHU216HW,2014-02-09 11:11:00,
2014-02-09 03:16:00,34.2,32.3,29.70,ESE,113,0.0,0.0,93,0.00,,,0.00,WUHU216HW,2014-02-09 11:16:00,
2014-02-09 03:21:00,34.2,32.3,29.70,ESE,113,0.0,0.0,93,0.00,,,0.00,WUHU216HW,2014-02-09 11:21:00,
2014-02-09 03:26:00,34.2,32.3,29.70,ESE,113,0.0,0.0,93,0.00,,,0.00,WUHU216HW,2014-02-09 11:26:00,
2014-02-09 03:31:00,34.4,32.5,29.70,ESE,113,0.0,0.0,93,0.00,,,0.00,WUHU216HW,2014-02-09 11:31:00,
2014-02-09 03:36:00,34.4,32.5,29.71,ESE,113,0.0,0.0,93,0.00,,,0.00,WUHU216HW,2014-02-09 11:36:00,
2014-02-09 03:41:00,34.4,32.5,29.71,ESE,113,0.0,0.0,93,0.00,,,0.00,WUHU216HW,2014-02-09 11:41:00,
2014-02-09 03:46:00,34.4,32.5,29.71,ESE,113,0.0,0.0,93,0.00,,,0.00,WUHU216HW,2014-02-09 11:46:00,
2014-02-09 03:51:00,34.4,32.5,29.71,ESE,113,0.0,0.0,93,0.00,,,0.00,WUHU216HW,2014-02-09 11:51:00,
2014-02-09 03:56:00,34.4,32.5,29.71,ESE,113,0.0,0.0,93,0.00,,,0.00,WUHU216HW,2014-02-09 11:56:00,
2014-02-09 04:01:00,34.4,32.5,29.71,ESE,113,0.0,0.0,93,0.00,,,0.00,WUHU216HW,2014-02-09 12:01:00,
2014-02-09 04:06:00,34.4,32.5,29.71,ESE,113,0.0,0.0,93,0.00,,,0.00,WUHU216HW,2014-02-09 12:06:00,
2014-02-09 04:11:00,34.2,32.3,29.71,ESE,113,0.0,0.0,93,0.00,,,0.00,WUHU216HW,2014-02-09 12:11:00,
2014-02-09 04:16:00,34.2,32.3,29.71,ESE,113,0.0,0.0,93,0.00,,,0.00,WUHU216HW,2014-02-09 12:16:00,
2014-02-09 04:21:00,34.4,32.5,29.71,ESE,113,0.0,0.0,93,0.00,,,0.00,WUHU216HW,2014-02-09 12:21:00,
2014-02-09 04:26:00,34.4,32.5,29.70,ESE,113,0.0,0.0,93,0.00,,,0.00,WUHU216HW,2014-02-09 12:26:00,
2014-02-09 04:31:00,34.4,32.5,29.71,ESE,113,0.0,0.0,93,0.00,,,0.00,WUHU216HW,2014-02-09 12:31:00,
2014-02-09 04:36:00,34.4,32.5,29.70,ESE,113,0.0,0.0,93,0.00,,,0.00,WUHU216HW,2014-02-09 12:36:00,
2014-02-09 04:41:00,34.4,32.5,29.70,ESE,113,0.0,0.0,93,0.00,,,0.00,WUHU216HW,2014-02-09 12:41:00,
2014-02-09 04:46:00,34.2,32.3,29.70,ESE,113,0.0,0.0,93,0.00,,,0.00,WUHU216HW,2014-02-09 12:46:00,
2014-02-09 04:51:00,34.2,32.3,29.70,ESE,113,0.0,0.0,93,0.00,,,0.00,WUHU216HW,2014-02-09 12:51:00,
2014-02-09 04:56:00,34.4,32.5,29.71,ESE,113,0.0,0.0,93,0.00,,,0.00,WUHU216HW,2014-02-09 12:56:00,
2014-02-09 05:01:00,34.4,32.5,29.71,ESE,113,0.0,0.0,93,0.00,,,0.00,WUHU216HW,2014-02-09 13:01:00,
2014-02-09 05:06:00,34.6,32.7,29.71,ESE,113,0.0,0.0,93,0.00,,,0.00,WUHU216HW,2014-02-09 13:06:00,
2014-02-09 05:11:00,34.6,32.7,29.71,ESE,113,0.0,0.0,93,0.00,,,0.00,WUHU216HW,2014-02-09 13:11:00,
2014-02-09 05:16:00,34.4,32.5,29.71,ESE,113,0.0,0.0,93,0.00,,,0.00,WUHU216HW,2014-02-09 13:16:00,
2014-02-09 05:21:00,34.4,32.5,29.71,ESE,113,0.0,0.0,93,0.00,,,0.00,WUHU216HW,2014-02-09 13:21:00,
2014-02-09 05:26:00,34.6,32.7,29.71,ESE,113,0.0,0.0,93,0.00,,,0.00,WUHU216HW,2014-02-09 13:26:00,
2014-02-09 05:31:00,34.6,32.7,29.71,ESE,113,0.0,0.0,93,0.00,,,0.00,WUHU216HW,2014-02-09 13:31:00,
2014-02-09 05:36:00,34.6,32.7,29.71,ESE,113,0.0,0.0,93,0.00,,,0.00,WUHU216HW,2014-02-09 13:36:00,
2014-02-09 05:41:00,34.6,32.7,29.71,ESE,113,0.0,0.0,93,0.00,,,0.00,WUHU216HW,2014-02-09 13:41:00,
2014-02-09 05:46:00,34.6,32.7,29.71,ESE,113,0.0,0.0,93,0.00,,,0.00,WUHU216HW,2014-02-09 13:46:00,
2014-02-09 05:51:00,34.6,32.9,29.71,ESE,113,0.0,0.0,94,0.00,,,0.00,WUHU216HW,2014-02-09 13:51:00,
2014-02-09 05:56:00,34.6,32.7,29.71,ESE,113,0.0,0.0,93,0.00,,,0.00,WUHU216HW,2014-02-09 13:56:00,
2014-02-09 06:01:00,34.7,33.1,29.71,ESE,113,0.0,0.0,94,0.00,,,0.00,WUHU216HW,2014-02-09 14:01:00,
2014-02-09 06:06:00,34.7,32.9,29.71,ESE,113,0.0,0.0,93,0.00,,,0.00,WUHU216HW,2014-02-09 14:06:00,
2014-02-09 06:11:00,34.7,32.9,29.71,ESE,113,0.0,0.0,93,0.00,,,0.00,WUHU216HW,2014-02-09 14:11:00,
2014-02-09 06:16:00,34.6,32.7,29.71,ESE,113,0.0,0.0,93,0.00,,,0.00,WUHU216HW,2014-02-09 14:16:00,
2014-02-09 06:21:00,34.6,32.7,29.71,ESE,113,0.0,0.0,93,0.00,,,0.00,WUHU216HW,2014-02-09 14:21:00,
2014-02-09 06:26:00,34.6,32.7,29.71,ESE,113,0.0,0.0,93,0.00,,,0.00,WUHU216HW,2014-02-09 14:26:00,
2014-02-09 06:30:00,34.6,32.7,29.72,ESE,113,0.0,0.0,93,0.00,,,0.00,WUHU216HW,2014-02-09 14:30:00,
2014-02-09 06:35:00,34.6,32.7,29.71,ESE,113,0.0,0.0,93,0.00,,,0.00,WUHU216HW,2014-02-09 14:35:00,
2014-02-09 06:40:00,34.6,32.7,29.72,ESE,113,0.0,0.0,93,0.00,,,0.00,WUHU216HW,2014-02-09 14:40:00,
2014-02-09 06:45:00,34.4,32.5,29.72,ESE,113,0.0,0.0,93,0.00,,,0.00,WUHU216HW,2014-02-09 14:45:00,
2014-02-09 06:50:00,34.4,32.5,29.72,ESE,113,0.0,0.0,93,0.00,,,0.00,WUHU216HW,2014-02-09 14:50:00,
2014-02-09 06:55:00,34.4,32.5,29.72,ESE,113,0.0,0.0,93,0.00,,,0.00,WUHU216HW,2014-02-09 14:55:00,
2014-02-09 07:00:00,34.4,32.5,29.72,ESE,113,0.0,0.0,93,0.00,,,0.00,WUHU216HW,2014-02-09 15:00:00,
2014-02-09 07:05:00,34.4,32.8,29.72,ESE,113,0.0,0.0,94,0.00,,,0.00,WUHU216HW,2014-02-09 15:05:00,
2014-02-09 07:10:00,34.6,32.9,29.72,ESE,113,0.0,0.0,94,0.00,,,0.00,WUHU216HW,2014-02-09 15:10:00,
2014-02-09 07:15:00,34.4,32.8,29.72,ESE,113,0.0,0.0,94,0.00,,,0.00,WUHU216HW,2014-02-09 15:15:00,
2014-02-09 07:20:00,34.4,32.8,29.72,ESE,113,0.0,0.0,94,0.00,,,0.00,WUHU216HW,2014-02-09 15:20:00,
2014-02-09 07:25:00,34.4,32.8,29.72,ESE,113,0.0,0.0,94,0.00,,,0.00,WUHU216HW,2014-02-09 15:25:00,
2014-02-09 07:30:00,34.6,32.9,29.72,ESE,113,0.0,0.0,94,0.00,,,0.00,WUHU216HW,2014-02-09 15:30:00,
2014-02-09 07:35:00,34.6,32.9,29.73,ESE,113,0.0,0.0,94,0.00,,,0.00,WUHU216HW,2014-02-09 15:35:00,
2014-02-09 07:40:00,34.4,32.8,29.73,ESE,113,0.0,0.0,94,0.00,,,0.00,WUHU216HW,2014-02-09 15:40:00,
2014-02-09 07:45:00,34.6,32.9,29.73,ESE,113,0.0,0.0,94,0.00,,,0.00,WUHU216HW,2014-02-09 15:45:00,
2014-02-09 07:50:00,34.6,32.9,29.73,ESE,113,0.0,0.0,94,0.00,,,0.00,WUHU216HW,2014-02-09 15:50:00,
2014-02-09 07:55:00,34.7,33.1,29.73,ESE,113,0.0,0.0,94,0.00,,,0.00,WUHU216HW,2014-02-09 15:55:00,
2014-02-09 08:00:00,34.6,32.9,29.73,ESE,113,0.0,0.0,94,0.00,,,0.00,WUHU216HW,2014-02-09 16:00:00,
2014-02-09 08:05:00,34.6,32.9,29.73,ESE,113,0.0,0.0,94,0.00,,,0.00,WUHU216HW,2014-02-09 16:05:00,
2014-02-09 08:10:00,34.4,32.8,29.73,ESE,113,0.0,0.0,94,0.00,,,0.00,WUHU216HW,2014-02-09 16:10:00,
2014-02-09 08:15:00,34.4,32.8,29.73,ESE,113,0.0,0.0,94,0.00,,,0.00,WUHU216HW,2014-02-09 16:15:00,
2014-02-09 08:20:00,34.4,32.8,29.73,ESE,113,0.0,0.0,94,0.00,,,0.00,WUHU216HW,2014-02-09 16:20:00,
2014-02-09 08:25:00,34.6,32.9,29.73,ESE,113,0.0,0.0,94,0.00,,,0.00,WUHU216HW,2014-02-09 16:25:00,
2014-02-09 08:30:00,34.6,32.9,29.73,ESE,113,0.0,0.0,94,0.00,,,0.00,WUHU216HW,2014-02-09 16:30:00,
2014-02-09 08:35:00,34.7,33.1,29.73,ESE,113,0.0,0.0,94,0.00,,,0.00,WUHU216HW,2014-02-09 16:35:00,
2014-02-09 08:40:00,34.7,33.1,29.73,ESE,113,0.0,0.0,94,0.00,,,0.00,WUHU216HW,2014-02-09 16:40:00,
2014-02-09 08:45:00,34.9,33.3,29.73,ESE,113,0.0,0.0,94,0.00,,,0.00,WUHU216HW,2014-02-09 16:45:00,
2014-02-09 08:50:00,34.9,33.3,29.73,ESE,113,0.0,0.0,94,0.00,,,0.00,WUHU216HW,2014-02-09 16:50:00,
2014-02-09 08:55:00,34.9,33.3,29.74,ESE,113,0.0,0.0,94,0.00,,,0.00,WUHU216HW,2014-02-09 16:55:00,
2014-02-09 09:00:00,35.1,33.5,29.74,ESE,113,0.0,0.0,94,0.00,,,0.00,WUHU216HW,2014-02-09 17:00:00,
2014-02-09 09:05:00,35.3,33.7,29.74,ESE,113,0.0,0.0,94,0.00,,,0.00,WUHU216HW,2014-02-09 17:05:00,
2014-02-09 09:10:00,35.5,33.8,29.74,ESE,113,0.0,0.0,94,0.00,,,0.00,WUHU216HW,2014-02-09 17:10:00,
2014-02-09 09:15:00,35.6,34.0,29.74,ESE,113,0.0,0.0,94,0.00,,,0.00,WUHU216HW,2014-02-09 17:15:00,
2014-02-09 09:20:00,35.6,34.0,29.74,ESE,113,0.0,0.0,94,0.00,,,0.00,WUHU216HW,2014-02-09 17:20:00,
2014-02-09 09:25:00,36.0,34.4,29.74,ESE,113,0.0,0.0,94,0.00,,,0.00,WUHU216HW,2014-02-09 17:25:00,
2014-02-09 09:30:00,36.0,34.4,29.74,ESE,113,0.0,0.0,94,0.00,,,0.00,WUHU216HW,2014-02-09 17:30:00,
2014-02-09 09:35:00,36.0,34.4,29.74,ESE,113,0.0,0.0,94,0.00,,,0.00,WUHU216HW,2014-02-09 17:35:00,
2014-02-09 09:40:00,36.0,34.4,29.74,ESE,113,0.0,0.0,94,0.00,,,0.00,WUHU216HW,2014-02-09 17:40:00,
2014-02-09 09:45:00,36.4,34.7,29.74,ESE,113,0.0,0.0,94,0.00,,,0.00,WUHU216HW,2014-02-09 17:45:00,
2014-02-09 09:50:00,36.4,34.7,29.74,ESE,113,0.0,0.0,94,0.00,,,0.00,WUHU216HW,2014-02-09 17:50:00,
2014-02-09 09:55:00,35.8,33.9,29.74,ESE,113,0.0,0.0,93,0.00,,,0.00,WUHU216HW,2014-02-09 17:55:00,
2014-02-09 10:00:00,35.8,33.9,29.74,ESE,113,0.0,0.0,93,0.00,,,0.00,WUHU216HW,2014-02-09 18:00:00,
2014-02-09 10:05:00,35.8,33.9,29.74,ESE,113,0.0,0.0,93,0.00,,,0.00,WUHU216HW,2014-02-09 18:05:00,
2014-02-09 10:10:00,36.4,34.5,29.75,ESE,113,0.0,0.0,93,0.00,,,0.00,WUHU216HW,2014-02-09 18:10:00,
2014-02-09 10:15:00,36.4,34.5,29.75,ESE,113,0.0,0.0,93,0.00,,,0.00,WUHU216HW,2014-02-09 18:15:00,
2014-02-09 10:20:00,36.4,34.5,29.75,ESE,113,0.0,0.0,93,0.00,,,0.00,WUHU216HW,2014-02-09 18:20:00,
2014-02-09 10:25:00,36.5,34.7,29.75,ESE,113,0.0,0.0,93,0.00,,,0.00,WUHU216HW,2014-02-09 18:25:00,
2014-02-09 10:30:00,36.7,34.8,29.75,ESE,113,0.0,0.0,93,0.00,,,0.00,WUHU216HW,2014-02-09 18:30:00,
2014-02-09 10:35:00,36.9,35.0,29.75,ESE,113,0.0,0.0,93,0.00,,,0.00,WUHU216HW,2014-02-09 18:35:00,
2014-02-09 10:40:00,36.9,35.0,29.75,ESE,113,0.0,0.0,93,0.00,,,0.00,WUHU216HW,2014-02-09 18:40:00,
2014-02-09 10:45:00,36.9,35.0,29.75,ESE,113,0.0,0.0,93,0.00,,,0.00,WUHU216HW,2014-02-09 18:45:00,
2014-02-09 10:50:00,37.4,35.6,29.75,ESE,113,0.0,0.0,93,0.00,,,0.00,WUHU216HW,2014-02-09 18:50:00,
2014-02-09 10:55:00,37.8,35.9,29.75,ESE,113,0.0,0.0,93,0.00,,,0.00,WUHU216HW,2014-02-09 18:55:00,
2014-02-09 11:00:00,38.2,36.3,29.75,ESE,113,0.0,0.0,93,0.00,,,0.00,WUHU216HW,2014-02-09 19:00:00,
2014-02-09 11:05:00,38.5,36.4,29.75,ESE,113,0.0,0.0,92,0.00,,,0.00,WUHU216HW,2014-02-09 19:05:00,
2014-02-09 11:10:00,38.9,36.7,29.75,ESE,113,0.0,0.0,92,0.00,,,0.00,WUHU216HW,2014-02-09 19:10:00,
2014-02-09 11:15:00,38.9,36.7,29.75,ESE,113,0.0,0.0,92,0.00,,,0.00,WUHU216HW,2014-02-09 19:15:00,
2014-02-09 11:20:00,38.9,36.5,29.75,ESE,113,0.0,0.0,91,0.00,,,0.00,WUHU216HW,2014-02-09 19:20:00,
2014-02-09 11:25:00,38.7,36.3,29.75,ESE,113,0.0,0.0,91,0.00,,,0.00,WUHU216HW,2014-02-09 19:25:00,
2014-02-09 11:30:00,38.5,35.8,29.75,ESE,113,0.0,0.0,90,0.00,,,0.00,WUHU216HW,2014-02-09 19:30:00,
2014-02-09 11:35:00,37.4,34.7,29.75,ESE,113,0.0,0.0,90,0.00,,,0.00,WUHU216HW,2014-02-09 19:35:00,
2014-02-09 11:40:00,36.7,34.3,29.75,ESE,113,0.0,0.0,91,0.00,,,0.00,WUHU216HW,2014-02-09 19:40:00,
2014-02-09 11:45:00,36.4,34.2,29.75,ESE,113,0.0,0.0,92,0.00,,,0.00,WUHU216HW,2014-02-09 19:45:00,
2014-02-09 11:50:00,36.5,34.4,29.75,ESE,113,0.0,0.0,92,0.00,,,0.00,WUHU216HW,2014-02-09 19:50:00,
2014-02-09 11:55:00,36.4,34.5,29.74,ESE,113,0.0,0.0,93,0.00,,,0.00,WUHU216HW,2014-02-09 19:55:00,
2014-02-09 12:00:00,36.4,34.5,29.74,ESE,113,0.0,0.0,93,0.00,,,0.00,WUHU216HW,2014-02-09 20:00:00,
2014-02-09 12:05:00,36.4,34.5,29.74,ESE,113,0.0,0.0,93,0.00,,,0.00,WUHU216HW,2014-02-09 20:05:00,
2014-02-09 12:10:00,36.4,34.5,29.74,ESE,113,0.0,0.0,93,0.00,,,0.00,WUHU216HW,2014-02-09 20:10:00,
2014-02-09 12:15:00,36.4,34.5,29.74,ESE,113,0.0,0.0,93,0.00,,,0.00,WUHU216HW,2014-02-09 20:15:00,
2014-02-09 12:20:00,36.5,34.7,29.74,ESE,113,0.0,0.0,93,0.00,,,0.00,WUHU216HW,2014-02-09 20:20:00,
2014-02-09 12:25:00,36.7,34.8,29.74,ESE,113,0.0,0.0,93,0.00,,,0.00,WUHU216HW,2014-02-09 20:25:00,
2014-02-09 12:30:00,36.7,34.8,29.74,ESE,113,0.0,0.0,93,0.00,,,0.00,WUHU216HW,2014-02-09 20:30:00,
2014-02-09 12:35:00,36.9,35.0,29.73,ESE,113,0.0,0.0,93,0.00,,,0.00,WUHU216HW,2014-02-09 20:35:00,
2014-02-09 12:40:00,36.9,35.0,29.73,ESE,113,0.0,0.0,93,0.00,,,0.00,WUHU216HW,2014-02-09 20:40:00,
2014-02-09 12:45:00,36.9,35.0,29.73,ESE,113,0.0,0.0,93,0.00,,,0.00,WUHU216HW,2014-02-09 20:45:00,
2014-02-09 12:50:00,36.9,35.0,29.73,ESE,113,0.0,0.0,93,0.00,,,0.00,WUHU216HW,2014-02-09 20:50:00,
2014-02-09 12:55:00,36.7,34.8,29.73,North,0,0.0,0.0,93,0.00,,,0.00,WUHU216HW,2014-02-09 20:55:00,
2014-02-09 13:00:00,36.7,34.8,29.72,North,0,0.0,0.0,93,0.00,,,0.00,WUHU216HW,2014-02-09 21:00:00,
2014-02-09 13:05:00,37.1,35.2,29.73,North,0,0.0,0.0,93,0.00,,,0.00,WUHU216HW,2014-02-09 21:05:00,
2014-02-09 13:10:00,37.6,35.7,29.72,North,0,0.0,0.0,93,0.00,,,0.00,WUHU216HW,2014-02-09 21:10:00,
2014-02-09 13:15:00,38.2,36.3,29.72,North,0,0.0,0.0,93,0.00,,,0.00,WUHU216HW,2014-02-09 21:15:00,
2014-02-09 13:20:00,38.3,36.2,29.72,North,0,0.0,0.0,92,0.00,,,0.00,WUHU216HW,2014-02-09 21:20:00,
2014-02-09 13:25:00,37.6,35.5,29.72,North,0,0.0,0.0,92,0.00,,,0.00,WUHU216HW,2014-02-09 21:25:00,
2014-02-09 13:30:00,37.1,34.9,29.71,North,0,0.0,0.0,92,0.00,,,0.00,WUHU216HW,2014-02-09 21:30:00,
2014-02-09 13:35:00,37.1,35.2,29.71,North,0,0.0,0.0,93,0.00,,,0.00,WUHU216HW,2014-02-09 21:35:00,
2014-02-09 13:40:00,37.3,35.4,29.71,North,0,0.0,0.0,93,0.00,,,0.00,WUHU216HW,2014-02-09 21:40:00,
2014-02-09 13:45:00,37.1,35.2,29.71,North,0,0.0,0.0,93,0.00,,,0.00,WUHU216HW,2014-02-09 21:45:00,
2014-02-09 13:50:00,37.4,35.6,29.71,North,0,0.0,0.0,93,0.00,,,0.00,WUHU216HW,2014-02-09 21:50:00,
2014-02-09 13:55:00,37.4,35.6,29.71,North,0,0.0,0.0,93,0.00,,,0.00,WUHU216HW,2014-02-09 21:55:00,
2014-02-09 14:00:00,37.4,35.6,29.71,North,0,0.0,0.0,93,0.00,,,0.00,WUHU216HW,2014-02-09 22:00:00,
2014-02-09 14:05:00,37.4,35.6,29.71,North,0,0.0,0.0,93,0.00,,,0.00,WUHU216HW,2014-02-09 22:05:00,
2014-02-09 14:10:00,37.8,35.9,29.70,North,0,0.0,0.0,93,0.00,,,0.00,WUHU216HW,2014-02-09 22:10:00,
2014-02-09 14:15:00,38.5,36.6,29.70,SE,135,0.0,0.0,93,0.00,,,0.00,WUHU216HW,2014-02-09 22:15:00,
2014-02-09 14:20:00,38.9,37.0,29.70,SE,135,0.0,0.0,93,0.00,,,0.00,WUHU216HW,2014-02-09 22:20:00,
2014-02-09 14:25:00,38.9,36.7,29.70,SE,135,0.0,0.0,92,0.00,,,0.00,WUHU216HW,2014-02-09 22:25:00,
2014-02-09 14:30:00,38.9,36.7,29.70,SE,135,0.0,0.0,92,0.00,,,0.00,WUHU216HW,2014-02-09 22:30:00,
2014-02-09 14:35:00,39.2,37.4,29.70,North,0,0.0,0.0,93,0.00,,,0.00,WUHU216HW,2014-02-09 22:35:00,
2014-02-09 14:40:00,39.4,37.5,29.70,North,0,0.0,0.0,93,0.00,,,0.00,WUHU216HW,2014-02-09 22:40:00,
2014-02-09 14:45:00,38.9,36.5,29.70,North,0,0.0,0.0,91,0.00,,,0.00,WUHU216HW,2014-02-09 22:45:00,
2014-02-09 14:50:00,38.2,35.7,29.70,North,0,0.0,0.0,91,0.00,,,0.00,WUHU216HW,2014-02-09 22:50:00,
2014-02-09 14:55:00,37.8,35.4,29.70,North,0,0.0,0.0,91,0.00,,,0.00,WUHU216HW,2014-02-09 22:55:00,
2014-02-09 15:00:00,37.3,35.1,29.70,North,0,0.0,0.0,92,0.00,,,0.00,WUHU216HW,2014-02-09 23:00:00,
2014-02-09 15:05:00,37.1,34.9,29.70,North,0,0.0,0.0,92,0.00,,,0.00,WUHU216HW,2014-02-09 23:05:00,
2014-02-09 15:10:00,37.1,34.9,29.70,North,0,0.0,0.0,92,0.00,,,0.00,WUHU216HW,2014-02-09 23:10:00,
2014-02-09 15:15:00,36.9,35.0,29.70,North,0,0.0,0.0,93,0.00,,,0.00,WUHU216HW,2014-02-09 23:15:00,
2014-02-09 15:20:00,36.9,35.0,29.70,North,0,0.0,0.0,93,0.00,,,0.00,WUHU216HW,2014-02-09 23:20:00,
2014-02-09 15:25:00,37.6,35.7,29.70,North,0,0.0,0.0,93,0.00,,,0.00,WUHU216HW,2014-02-09 23:25:00,
2014-02-09 15:30:00,38.9,37.3,29.70,North,0,0.0,0.0,94,0.00,,,0.00,WUHU216HW,2014-02-09 23:30:00,
2014-02-09 15:35:00,40.0,38.1,29.70,North,0,0.0,0.0,93,0.00,,,0.00,WUHU216HW,2014-02-09 23:35:00,
2014-02-09 15:40:00,39.8,37.9,29.70,North,0,0.0,0.0,93,0.00,,,0.00,WUHU216HW,2014-02-09 23:40:00,
2014-02-09 15:45:00,39.1,36.9,29.70,North,0,0.0,0.0,92,0.00,,,0.00,WUHU216HW,2014-02-09 23:45:00,
2014-02-09 15:50:00,39.4,37.5,29.70,North,0,0.0,0.0,93,0.00,,,0.00,WUHU216HW,2014-02-09 23:50:00,
2014-02-09 15:55:00,39.6,37.7,29.70,North,0,0.0,0.0,93,0.00,,,0.00,WUHU216HW,2014-02-09 23:55:00,
2014-02-09 16:00:00,40.0,37.8,29.70,North,0,0.0,0.0,92,0.00,,,0.00,WUHU216HW,2014-02-10 00:00:00,
2014-02-09 16:05:00,40.0,37.5,29.70,SE,135,0.0,0.0,91,0.00,,,0.00,WUHU216HW,2014-02-10 00:05:00,
2014-02-09 16:10:00,39.6,37.2,29.70,SE,135,0.0,0.0,91,0.00,,,0.00,WUHU216HW,2014-02-10 00:10:00,
2014-02-09 16:15:00,40.0,37.5,29.70,SE,135,0.0,0.0,91,0.00,,,0.00,WUHU216HW,2014-02-10 00:15:00,
2014-02-09 16:20:00,40.0,37.5,29.71,SE,135,0.0,0.0,91,0.00,,,0.00,WUHU216HW,2014-02-10 00:20:00,
2014-02-09 16:25:00,40.0,37.5,29.71,SE,135,0.0,0.0,91,0.00,,,0.00,WUHU216HW,2014-02-10 00:25:00,
2014-02-09 16:30:00,39.6,36.9,29.71,SE,135,0.0,0.0,90,0.00,,,0.00,WUHU216HW,2014-02-10 00:30:00,
2014-02-09 16:35:00,39.6,37.2,29.71,SE,135,0.0,0.0,91,0.00,,,0.00,WUHU216HW,2014-02-10 00:35:00,
2014-02-09 16:40:00,39.6,37.2,29.71,SE,135,0.0,0.0,91,0.00,,,0.00,WUHU216HW,2014-02-10 00:40:00,
2014-02-09 16:45:00,39.2,36.8,29.71,SE,135,0.0,0.0,91,0.00,,,0.00,WUHU216HW,2014-02-10 00:45:00,
2014-02-09 16:50:00,39.2,36.8,29.71,SE,135,0.0,0.0,91,0.00,,,0.00,WUHU216HW,2014-02-10 00:50:00,
2014-02-09 16:55:00,39.4,37.0,29.71,SSW,203,0.0,0.2,91,0.00,,,0.00,WUHU216HW,2014-02-10 00:55:00,
2014-02-09 17:00:00,39.4,37.0,29.71,SSW,203,0.0,0.2,91,0.00,,,0.00,WUHU216HW,2014-02-10 01:00:00,
2014-02-09 17:05:00,39.2,36.8,29.71,South,180,0.0,0.0,91,0.00,,,0.00,WUHU216HW,2014-02-10 01:05:00,
2014-02-09 17:10:00,39.1,36.6,29.71,South,180,0.0,0.0,91,0.00,,,0.00,WUHU216HW,2014-02-10 01:10:00,
2014-02-09 17:15:00,39.2,36.8,29.71,South,180,0.0,0.0,91,0.00,,,0.00,WUHU216HW,2014-02-10 01:15:00,
2014-02-09 17:20:00,39.4,37.0,29.71,South,180,0.0,0.0,91,0.00,,,0.00,WUHU216HW,2014-02-10 01:20:00,
2014-02-09 17:25:00,39.6,37.2,29.71,South,180,0.0,0.0,91,0.00,,,0.00,WUHU216HW,2014-02-10 01:25:00,
2014-02-09 17:30:00,39.6,36.9,29.71,South,180,0.0,0.0,90,0.00,,,0.00,WUHU216HW,2014-02-10 01:30:00,
2014-02-09 17:35:00,39.4,36.7,29.72,South,180,0.0,0.0,90,0.00,,,0.00,WUHU216HW,2014-02-10 01:35:00,
2014-02-09 17:40:00,39.4,36.7,29.72,South,180,0.0,0.0,90,0.00,,,0.00,WUHU216HW,2014-02-10 01:40:00,
2014-02-09 17:45:00,39.4,36.7,29.72,South,180,0.0,0.0,90,0.00,,,0.00,WUHU216HW,2014-02-10 01:45:00,
2014-02-09 17:50:00,39.2,36.5,29.72,South,180,0.0,0.0,90,0.00,,,0.00,WUHU216HW,2014-02-10 01:50:00,
2014-02-09 17:55:00,39.4,37.0,29.72,South,180,0.0,0.0,91,0.00,,,0.00,WUHU216HW,2014-02-10 01:55:00,
2014-02-09 18:00:00,39.2,36.5,29.72,South,180,0.0,0.0,90,0.00,,,0.00,WUHU216HW,2014-02-10 02:00:00,
2014-02-09 18:05:00,39.2,36.5,29.72,South,180,0.0,0.0,90,0.00,,,0.00,WUHU216HW,2014-02-10 02:05:00,
2014-02-09 18:10:00,39.1,36.4,29.72,South,180,0.0,0.0,90,0.00,,,0.00,WUHU216HW,2014-02-10 02:10:00,
2014-02-09 18:15:00,39.2,36.8,29.72,South,180,0.0,0.0,91,0.00,,,0.00,WUHU216HW,2014-02-10 02:15:00,
2014-02-09 18:20:00,39.2,36.5,29.73,South,180,0.0,0.0,90,0.00,,,0.00,WUHU216HW,2014-02-10 02:20:00,
2014-02-09 18:25:00,39.2,36.8,29.73,South,180,0.0,0.0,91,0.00,,,0.00,WUHU216HW,2014-02-10 02:25:00,
2014-02-09 18:30:00,39.4,37.0,29.73,South,180,0.0,0.0,91,0.00,,,0.00,WUHU216HW,2014-02-10 02:30:00,
2014-02-09 18:35:00,39.8,37.4,29.73,South,180,0.0,0.0,91,0.00,,,0.00,WUHU216HW,2014-02-10 02:35:00,
2014-02-09 18:40:00,39.8,37.4,29.73,South,180,0.0,0.0,91,0.00,,,0.00,WUHU216HW,2014-02-10 02:40:00,
2014-02-09 18:45:00,40.0,37.5,29.73,South,180,0.0,0.0,91,0.00,,,0.00,WUHU216HW,2014-02-10 02:45:00,
2014-02-09 18:50:00,40.0,37.3,29.73,South,180,0.0,0.0,90,0.00,,,0.00,WUHU216HW,2014-02-10 02:50:00,
2014-02-09 18:55:00,39.8,37.1,29.73,South,180,0.0,0.0,90,0.00,,,0.00,WUHU216HW,2014-02-10 02:55:00,
2014-02-09 19:00:00,39.6,36.9,29.73,South,180,0.0,0.0,90,0.00,,,0.00,WUHU216HW,2014-02-10 03:00:00,
2014-02-09 19:05:00,39.2,36.8,29.73,SW,225,0.0,0.0,91,0.00,,,0.00,WUHU216HW,2014-02-10 03:05:00,
2014-02-09 19:10:00,39.2,36.8,29.73,SW,225,0.0,0.0,91,0.00,,,0.00,WUHU216HW,2014-02-10 03:10:00,
2014-02-09 19:15:00,38.5,36.1,29.73,SW,225,0.0,0.0,91,0.00,,,0.00,WUHU216HW,2014-02-10 03:15:00,
2014-02-09 19:20:00,38.2,35.7,29.73,SW,225,0.0,0.0,91,0.00,,,0.00,WUHU216HW,2014-02-10 03:20:00,
2014-02-09 19:25:00,37.8,35.1,29.73,SW,225,0.0,0.0,90,0.00,,,0.00,WUHU216HW,2014-02-10 03:25:00,
2014-02-09 19:30:00,37.4,34.7,29.74,WNW,293,0.0,0.0,90,0.00,,,0.00,WUHU216HW,2014-02-10 03:30:00,
2014-02-09 19:35:00,37.1,34.4,29.74,WNW,293,0.0,0.0,90,0.00,,,0.00,WUHU216HW,2014-02-10 03:35:00,
2014-02-09 19:40:00,36.9,34.5,29.74,WNW,293,0.0,0.0,91,0.00,,,0.00,WUHU216HW,2014-02-10 03:40:00,
2014-02-09 19:45:00,36.7,34.3,29.74,WNW,293,0.0,0.0,91,0.00,,,0.00,WUHU216HW,2014-02-10 03:45:00,
2014-02-09 19:50:00,36.7,34.3,29.75,WNW,293,0.0,0.0,91,0.00,,,0.00,WUHU216HW,2014-02-10 03:50:00,
2014-02-09 19:55:00,36.5,34.1,29.75,WNW,293,0.0,0.0,91,0.00,,,0.00,WUHU216HW,2014-02-10 03:55:00,
2014-02-09 20:00:00,36.4,33.9,29.75,WNW,293,0.0,0.0,91,0.00,,,0.00,WUHU216HW,2014-02-10 04:00:00,
2014-02-09 20:05:00,36.4,34.2,29.75,NW,315,0.0,0.0,92,0.00,,,0.00,WUHU216HW,2014-02-10 04:05:00,
2014-02-09 20:10:00,36.4,34.2,29.75,NW,315,0.0,0.0,92,0.00,,,0.00,WUHU216HW,2014-02-10 04:10:00,
2014-02-09 20:15:00,36.2,34.0,29.75,NW,315,0.0,0.0,92,0.00,,,0.00,WUHU216HW,2014-02-10 04:15:00,
2014-02-09 20:20:00,36.0,33.8,29.75,NW,315,0.0,0.0,92,0.00,,,0.00,WUHU216HW,2014-02-10 04:20:00,
2014-02-09 20:25:00,36.0,34.1,29.75,NW,315,0.0,0.0,93,0.00,,,0.00,WUHU216HW,2014-02-10 04:25:00,
2014-02-09 20:30:00,36.0,34.1,29.75,NW,315,0.0,0.0,93,0.00,,,0.00,WUHU216HW,2014-02-10 04:30:00,
2014-02-09 20:35:00,36.2,34.3,29.75,NW,315,0.0,0.0,93,0.00,,,0.00,WUHU216HW,2014-02-10 04:35:00,
2014-02-09 20:40:00,36.2,34.3,29.75,NW,315,0.0,0.0,93,0.00,,,0.00,WUHU216HW,2014-02-10 04:40:00,
2014-02-09 20:45:00,36.2,34.3,29.76,NW,315,0.0,0.0,93,0.00,,,0.00,WUHU216HW,2014-02-10 04:45:00,
2014-02-09 20:50:00,36.4,34.5,29.76,NW,315,0.0,0.0,93,0.00,,,0.00,WUHU216HW,2014-02-10 04:50:00,
2014-02-09 20:55:00,36.4,34.5,29.76,NW,315,0.0,0.0,93,0.00,,,0.00,WUHU216HW,2014-02-10 04:55:00,
2014-02-09 21:00:00,36.2,34.3,29.76,NW,315,0.0,0.0,93,0.00,,,0.00,WUHU216HW,2014-02-10 05:00:00,
2014-02-09 21:01:00,36.2,34.3,29.76,NW,315,0.0,0.0,93,0.00,,,0.00,WUHU216HW,2014-02-10 05:01:00,
2014-02-09 21:06:00,36.2,34.3,29.76,NW,315,0.0,0.0,93,0.00,,,0.00,WUHU216HW,2014-02-10 05:06:00,
2014-02-09 21:11:00,36.2,34.3,29.76,NW,315,0.0,0.0,93,0.00,,,0.00,WUHU216HW,2014-02-10 05:11:00,
2014-02-09 21:16:00,36.2,34.3,29.76,NW,315,0.0,0.0,93,0.00,,,0.00,WUHU216HW,2014-02-10 05:16:00,
2014-02-09 21:21:00,36.4,34.5,29.76,NW,315,0.0,0.0,93,0.00,,,0.00,WUHU216HW,2014-02-10 05:21:00,
2014-02-09 21:26:00,36.4,34.5,29.76,NW,315,0.0,0.0,93,0.00,,,0.00,WUHU216HW,2014-02-10 05:26:00,
2014-02-09 21:31:00,36.4,34.5,29.76,NW,315,0.0,0.0,93,0.00,,,0.00,WUHU216HW,2014-02-10 05:31:00,
2014-02-09 21:36:00,36.4,34.5,29.76,NW,315,0.0,0.0,93,0.00,,,0.00,WUHU216HW,2014-02-10 05:36:00,
2014-02-09 21:41:00,36.4,34.5,29.76,NW,315,0.0,0.0,93,0.00,,,0.00,WUHU216HW,2014-02-10 05:41:00,
2014-02-09 21:46:00,36.2,34.3,29.76,NW,315,0.0,0.0,93,0.00,,,0.00,WUHU216HW,2014-02-10 05:46:00,
2014-02-09 21:51:00,36.2,34.3,29.76,NW,315,0.0,0.0,93,0.00,,,0.00,WUHU216HW,2014-02-10 05:51:00,
2014-02-09 21:56:00,36.2,34.3,29.76,NW,315,0.0,0.0,93,0.00,,,0.00,WUHU216HW,2014-02-10 05:56:00,
2014-02-09 22:01:00,36.2,34.3,29.76,NW,315,0.0,0.0,93,0.00,,,0.00,WUHU216HW,2014-02-10 06:01:00,
2014-02-09 22:06:00,36.2,34.3,29.76,NW,315,0.0,0.0,93,0.00,,,0.00,WUHU216HW,2014-02-10 06:06:00,
2014-02-09 22:11:00,36.2,34.3,29.76,NW,315,0.0,0.0,93,0.00,,,0.00,WUHU216HW,2014-02-10 06:11:00,
2014-02-09 22:16:00,36.2,34.3,29.76,NW,315,0.0,0.0,93,0.00,,,0.00,WUHU216HW,2014-02-10 06:16:00,
2014-02-09 22:21:00,36.2,34.3,29.76,NW,315,0.0,0.0,93,0.00,,,0.00,WUHU216HW,2014-02-10 06:21:00,
2014-02-09 22:26:00,36.2,34.3,29.76,NW,315,0.0,0.0,93,0.00,,,0.00,WUHU216HW,2014-02-10 06:26:00,
2014-02-09 22:31:00,36.0,34.1,29.76,NW,315,0.0,0.0,93,0.00,,,0.00,WUHU216HW,2014-02-10 06:31:00,
2014-02-09 22:36:00,36.0,34.1,29.76,NW,315,0.0,0.0,93,0.00,,,0.00,WUHU216HW,2014-02-10 06:36:00,
2014-02-09 22:41:00,36.0,34.1,29.76,NW,315,0.0,0.0,93,0.00,,,0.00,WUHU216HW,2014-02-10 06:41:00,
2014-02-09 22:46:00,36.0,34.1,29.76,NW,315,0.0,0.0,93,0.00,,,0.00,WUHU216HW,2014-02-10 06:46:00,
2014-02-09 22:51:00,36.0,34.1,29.76,NW,315,0.0,0.0,93,0.00,,,0.00,WUHU216HW,2014-02-10 06:51:00,
2014-02-09 22:56:00,36.0,34.1,29.76,NW,315,0.0,0.0,93,0.00,,,0.00,WUHU216HW,2014-02-10 06:56:00,
2014-02-09 23:01:00,36.0,34.1,29.76,NW,315,0.0,0.0,93,0.00,,,0.00,WUHU216HW,2014-02-10 07:01:00,
2014-02-09 23:06:00,36.0,34.1,29.77,NW,315,0.0,0.0,93,0.00,,,0.00,WUHU216HW,2014-02-10 07:06:00,
2014-02-09 23:11:00,35.8,33.9,29.76,NW,315,0.0,0.0,93,0.00,,,0.00,WUHU216HW,2014-02-10 07:11:00,
2014-02-09 23:16:00,36.0,34.1,29.76,NW,315,0.0,0.0,93,0.00,,,0.00,WUHU216HW,2014-02-10 07:16:00,
2014-02-09 23:21:00,35.8,33.9,29.76,NW,315,0.0,0.0,93,0.00,,,0.00,WUHU216HW,2014-02-10 07:21:00,
2014-02-09 23:26:00,35.8,33.9,29.76,NW,315,0.0,0.0,93,0.00,,,0.00,WUHU216HW,2014-02-10 07:26:00,
2014-02-09 23:31:00,35.8,33.9,29.77,NW,315,0.0,0.0,93,0.00,,,0.00,WUHU216HW,2014-02-10 07:31:00,
2014-02-09 23:36:00,35.8,33.9,29.77,NW,315,0.0,0.0,93,0.00,,,0.00,WUHU216HW,2014-02-10 07:36:00,
2014-02-09 23:41:00,35.8,33.9,29.77,NW,315,0.0,0.0,93,0.00,,,0.00,WUHU216HW,2014-02-10 07:41:00,
2014-02-09 23:46:00,35.8,33.9,29.77,WNW,293,0.0,0.0,93,0.00,,,0.00,WUHU216HW,2014-02-10 07:46:00,
2014-02-09 23:51:00,35.8,33.9,29.77,WNW,293,0.0,0.0,93,0.00,,,0.00,WUHU216HW,2014-02-10 07:51:00,
2014-02-09 23:56:00,36.0,34.1,29.77,WNW,293,0.0,0.0,93,0.00,,,0.00,WUHU216HW,2014-02-10 07:56:00,